Time;durP1;ratioP1;P1;durP2;ratioP2;P2;SDS_P1;SDS_P2;PMS_P1;PMS_P2;Temp;Humidity;BMP_temperature;BMP_pressure;BME280_temperature;BME280_humidity;BME280_pressure;Samples;Min_cycle;Max_cycle;Signal;HPM_P1;HPM_P2
2021/04/06 00:02:24;;;;;;;4.50;3.88;;;;;;;-0.82;38.31;100289.69;4936090;28;96983;-75
2021/04/06 00:04:52;;;;;;;4.90;4.70;;;;;;;-0.77;37.74;100267.34;4961552;28;96881;-75
2021/04/06 00:07:23;;;;;;;8.00;4.82;;;;;;;-0.75;37.36;100272.66;4944272;28;100982;-73
2021/04/06 00:09:52;;;;;;;4.82;4.60;;;;;;;-0.78;37.95;100270.78;4961836;28;97762;-72
2021/04/06 00:12:20;;;;;;;4.75;4.47;;;;;;;-0.81;37.20;100263.66;4943594;28;98229;-73
2021/04/06 00:14:50;;;;;;;5.38;5.07;;;;;;;-0.83;37.68;100282.69;4962308;28;97992;-75
2021/04/06 00:17:18;;;;;;;5.20;4.90;;;;;;;-0.81;38.03;100273.19;4945326;28;99654;-76
2021/04/06 00:19:46;;;;;;;5.35;4.95;;;;;;;-0.82;37.67;100267.09;4946013;28;97638;-73
2021/04/06 00:22:17;;;;;;;5.10;4.72;;;;;;;-0.78;37.28;100267.25;4942799;28;97396;-73
2021/04/06 00:24:47;;;;;;;4.70;4.32;;;;;;;-0.72;37.76;100257.19;4944056;28;97369;-73
2021/04/06 00:27:17;;;;;;;5.00;4.70;;;;;;;-0.70;37.04;100261.66;4926919;28;99312;-73
2021/04/06 00:29:47;;;;;;;5.13;4.30;;;;;;;-0.69;36.74;100252.13;4927116;28;101018;-73
2021/04/06 00:32:16;;;;;;;4.95;4.68;;;;;;;-0.71;37.02;100254.66;4961011;28;97598;-73
2021/04/06 00:34:44;;;;;;;5.22;4.93;;;;;;;-0.69;36.98;100255.63;4960312;28;97306;-73
2021/04/06 00:37:14;;;;;;;4.88;4.47;;;;;;;-0.69;37.02;100252.13;4933919;28;99553;-74
2021/04/06 00:39:41;;;;;;;4.90;4.60;;;;;;;-0.69;36.98;100253.03;4974388;28;98721;-73
2021/04/06 00:42:10;;;;;;;4.80;4.55;;;;;;;-0.69;36.91;100241.66;4943823;28;97213;-73
2021/04/06 00:44:40;;;;;;;5.07;4.70;;;;;;;-0.70;37.17;100250.34;4943569;28;96836;-73
2021/04/06 00:47:08;;;;;;;4.78;4.47;;;;;;;-0.68;37.56;100240.88;4975936;28;101229;-73
2021/04/06 00:49:37;;;;;;;5.93;5.47;;;;;;;-0.66;37.29;100242.72;4942630;28;99175;-73
2021/04/06 00:52:05;;;;;;;4.72;4.47;;;;;;;-0.64;37.13;100245.44;4927356;28;97799;-73
2021/04/06 00:54:34;;;;;;;5.30;4.90;;;;;;;-0.64;36.88;100251.56;4943550;28;96938;-73
2021/04/06 00:57:02;;;;;;;5.28;5.05;;;;;;;-0.64;36.96;100246.34;4943658;28;100882;-74
2021/04/06 00:59:30;;;;;;;4.90;4.60;;;;;;;-0.62;36.98;100243.81;4959518;28;99288;-74
2021/04/06 01:01:59;;;;;;;4.50;4.30;;;;;;;-0.62;37.38;100234.25;4974847;28;97715;-73
2021/04/06 01:04:29;;;;;;;5.53;5.22;;;;;;;-0.59;37.00;100239.66;4968709;28;96946;-73
2021/04/06 01:07:14;;;;;;;5.07;4.70;;;;;;;-0.61;36.96;100225.59;4961639;28;98045;-74
2021/04/06 01:09:43;;;;;;;5.60;5.10;;;;;;;-0.53;37.68;100240.00;4969032;28;98225;-74
2021/04/06 01:12:12;;;;;;;5.25;4.80;;;;;;;-0.60;38.06;100230.03;4944280;28;96941;-73
2021/04/06 01:14:42;;;;;;;4.35;4.15;;;;;;;-0.58;37.41;100237.94;4961530;28;96845;-74
2021/04/06 01:17:10;;;;;;;6.63;5.13;;;;;;;-0.52;37.77;100236.56;4943705;28;99488;-73
2021/04/06 01:19:38;;;;;;;4.70;4.30;;;;;;;-0.49;38.42;100246.31;4944719;28;101136;-74
2021/04/06 01:22:07;;;;;;;5.38;4.88;;;;;;;-0.53;37.73;100245.22;4946964;28;97633;-75
2021/04/06 01:24:36;;;;;;;5.80;5.28;;;;;;;-0.54;37.71;100258.22;4946545;28;97860;-74
2021/04/06 01:27:05;;;;;;;5.75;5.35;;;;;;;-0.52;37.49;100257.47;4960872;28;98201;-74
2021/04/06 01:29:32;;;;;;;5.32;5.03;;;;;;;-0.53;37.65;100262.63;4961174;28;97859;-74
2021/04/06 01:32:00;;;;;;;5.28;4.82;;;;;;;-0.47;37.32;100256.03;4959805;28;98040;-74
2021/04/06 01:34:27;;;;;;;5.00;4.80;;;;;;;-0.44;37.71;100260.53;4944002;28;97172;-75
2021/04/06 01:36:56;;;;;;;4.45;4.15;;;;;;;-0.45;37.74;100263.97;4951743;28;99869;-75
2021/04/06 01:39:24;;;;;;;5.50;5.20;;;;;;;-0.45;37.40;100263.97;4946215;28;100226;-75
2021/04/06 01:41:54;;;;;;;4.72;4.53;;;;;;;-0.46;36.91;100270.91;4962594;28;96999;-75
2021/04/06 01:44:21;;;;;;;4.90;4.50;;;;;;;-0.47;37.74;100268.19;4959291;28;97366;-75
2021/04/06 01:46:48;;;;;;;5.10;4.57;;;;;;;-0.48;37.38;100267.28;4960959;28;98971;-74
2021/04/06 01:49:16;;;;;;;4.68;4.38;;;;;;;-0.48;37.66;100266.41;4962656;28;99452;-74
2021/04/06 01:51:43;;;;;;;5.22;5.03;;;;;;;-0.55;37.52;100262.53;4943903;28;97456;-74
2021/04/06 01:54:11;;;;;;;5.82;5.40;;;;;;;-0.56;37.38;100265.06;4944284;28;96978;-75
2021/04/06 01:56:44;;;;;;;5.28;4.97;;;;;;;-0.60;37.46;100264.00;4976431;28;97657;-73
2021/04/06 01:59:16;;;;;;;5.00;4.72;;;;;;;-0.62;37.40;100268.22;4945263;28;97902;-74
2021/04/06 02:01:47;;;;;;;5.50;4.78;;;;;;;-0.62;37.71;100265.63;4944307;28;97429;-74
2021/04/06 02:04:19;;;;;;;5.00;4.75;;;;;;;-0.59;37.32;100264.91;4977300;28;97803;-74
2021/04/06 02:06:46;;;;;;;6.25;5.00;;;;;;;-0.49;37.78;100260.28;4944421;28;98254;-74
2021/04/06 02:09:13;;;;;;;5.13;4.93;;;;;;;-0.48;38.00;100261.19;4961287;28;98095;-74
2021/04/06 02:11:40;;;;;;;4.63;4.43;;;;;;;-0.45;37.92;100254.41;4976959;28;98200;-74
2021/04/06 02:14:09;;;;;;;5.28;4.88;;;;;;;-0.42;37.39;100258.91;4962431;28;97877;-74
2021/04/06 02:16:52;;;;;;;5.10;4.60;;;;;;;-0.41;38.40;100251.13;4962481;28;97476;-75
2021/04/06 02:19:27;;;;;;;5.25;4.78;;;;;;;-0.45;37.66;100254.41;4954954;28;97912;-75
2021/04/06 02:21:56;;;;;;;6.68;6.00;;;;;;;-0.43;37.42;100255.38;4944315;28;98813;-75
2021/04/06 02:24:36;;;;;;;5.05;4.78;;;;;;;-0.43;37.59;100251.88;4938404;28;97928;-74
2021/04/06 02:27:08;;;;;;;5.10;4.90;;;;;;;-0.43;37.35;100249.28;4962042;28;97644;-73
2021/04/06 02:29:39;;;;;;;5.55;5.15;;;;;;;-0.46;37.35;100255.22;4943483;28;99765;-74
2021/04/06 02:32:09;;;;;;;4.47;4.28;;;;;;;-0.47;37.58;100248.22;4945958;28;97975;-74
2021/04/06 02:34:41;;;;;;;5.55;4.85;;;;;;;-0.52;37.76;100252.25;4978147;28;97697;-74
2021/04/06 02:37:13;;;;;;;5.20;4.80;;;;;;;-0.55;37.81;100241.63;4963132;28;98306;-74
2021/04/06 02:39:40;;;;;;;5.20;4.85;;;;;;;-0.55;37.64;100246.84;4960901;28;100369;-73
2021/04/06 02:42:21;;;;;;;4.70;4.50;;;;;;;-0.59;37.91;100244.88;4928956;28;97302;-73
2021/04/06 02:44:48;;;;;;;5.10;4.70;;;;;;;-0.63;37.20;100236.81;4965600;28;97589;-73
2021/04/06 02:47:17;;;;;;;5.30;5.10;;;;;;;-0.65;37.50;100244.56;4949539;28;99519;-74
2021/04/06 02:49:45;;;;;;;6.10;5.50;;;;;;;-0.63;37.71;100249.88;4967817;28;97908;-74
2021/04/06 02:52:13;;;;;;;5.25;4.95;;;;;;;-0.69;37.99;100236.44;4949439;28;96807;-74
2021/04/06 02:54:41;;;;;;;6.05;5.50;;;;;;;-0.69;37.70;100234.75;4967709;28;96728;-74
2021/04/06 02:57:24;;;;;;;5.65;5.40;;;;;;;-0.67;38.76;100242.66;4980319;28;99272;-74
2021/04/06 02:59:52;;;;;;;6.15;4.82;;;;;;;-0.71;37.57;100249.41;4966724;28;97874;-74
2021/04/06 03:02:20;;;;;;;5.32;5.03;;;;;;;-0.74;37.59;100249.25;4944516;28;97534;-73
2021/04/06 03:04:48;;;;;;;5.20;5.00;;;;;;;-0.74;37.24;100251.88;4946484;28;97033;-73
2021/04/06 03:07:19;;;;;;;5.85;5.45;;;;;;;-0.73;38.04;100248.44;4981464;28;97762;-73
2021/04/06 03:09:54;;;;;;;6.57;6.00;;;;;;;-0.65;38.42;100241.94;4944556;28;98179;-74
2021/04/06 03:12:26;;;;;;;6.85;6.25;;;;;;;-0.55;38.71;100248.56;4964650;28;97736;-73
2021/04/06 03:14:54;;;;;;;8.10;5.10;;;;;;;-0.51;38.45;100242.69;4964972;28;97476;-74
2021/04/06 03:17:22;;;;;;;5.97;5.38;;;;;;;-0.49;38.52;100239.38;4964793;28;97774;-75
2021/04/06 03:19:55;;;;;;;6.45;5.88;;;;;;;-0.47;38.05;100239.44;4955815;28;99646;-74
2021/04/06 03:22:21;;;;;;;6.00;5.45;;;;;;;-0.46;38.08;100238.63;4963342;28;98306;-73
2021/04/06 03:24:48;;;;;;;5.85;5.35;;;;;;;-0.50;38.21;100239.28;4977605;28;97649;-73
2021/04/06 03:27:15;;;;;;;5.47;5.18;;;;;;;-0.54;38.21;100238.22;4960890;28;100095;-73
2021/04/06 03:29:42;;;;;;;5.70;5.30;;;;;;;-0.59;38.23;100238.78;4962261;28;98824;-73
2021/04/06 03:32:09;;;;;;;7.20;6.55;;;;;;;-0.64;38.01;100235.88;4944547;28;97831;-74
2021/04/06 03:34:38;;;;;;;6.82;6.28;;;;;;;-0.62;38.05;100252.56;4937641;28;97035;-74
2021/04/06 03:37:06;;;;;;;5.95;5.57;;;;;;;-0.63;38.50;100248.16;4942098;28;98813;-74
2021/04/06 03:39:34;;;;;;;5.63;5.32;;;;;;;-0.63;38.17;100248.16;4944850;28;101813;-75
2021/04/06 03:42:04;;;;;;;6.20;5.90;;;;;;;-0.64;38.43;100253.25;4963035;28;98347;-74
2021/04/06 03:44:32;;;;;;;6.25;5.40;;;;;;;-0.67;38.50;100251.41;4943956;28;97774;-73
2021/04/06 03:47:01;;;;;;;9.18;7.68;;;;;;;-0.59;39.32;100247.50;4962149;28;97499;-74
2021/04/06 03:49:30;;;;;;;6.82;6.28;;;;;;;-0.59;38.92;100252.72;4962694;28;97580;-73
2021/04/06 03:51:59;;;;;;;6.15;5.65;;;;;;;-0.59;38.64;100250.09;4977524;28;97488;-74
2021/04/06 03:54:40;;;;;;;6.28;5.95;;;;;;;-0.59;38.55;100244.88;4946247;28;96947;-74
2021/04/06 03:57:31;;;;;;;6.35;5.95;;;;;;;-0.58;39.88;100248.41;4918071;28;98687;-75
2021/04/06 04:00:07;;;;;;;6.05;5.50;;;;;;;-0.60;38.42;100248.31;4944308;28;97606;-74
2021/04/06 04:02:34;;;;;;;6.20;5.80;;;;;;;-0.58;38.66;100246.69;4917519;28;97394;-75
2021/04/06 04:05:02;;;;;;;7.13;6.55;;;;;;;-0.57;38.75;100240.66;4962436;28;97345;-75
2021/04/06 04:07:32;;;;;;;6.80;6.10;;;;;;;-0.58;38.41;100246.69;4961930;28;97775;-75
2021/04/06 04:09:59;;;;;;;6.85;6.35;;;;;;;-0.58;38.34;100249.31;4958121;28;99207;-76
2021/04/06 04:12:26;;;;;;;7.13;6.53;;;;;;;-0.63;38.77;100244.63;4961434;28;98037;-75
2021/04/06 04:14:55;;;;;;;7.13;6.63;;;;;;;-0.62;38.21;100243.81;4945851;28;97929;-75
2021/04/06 04:17:21;;;;;;;6.97;6.55;;;;;;;-0.65;38.66;100249.78;4961882;28;98262;-74
2021/04/06 04:19:48;;;;;;;6.80;6.30;;;;;;;-0.70;39.14;100256.44;4945073;28;99809;-75
2021/04/06 04:22:15;;;;;;;6.75;6.28;;;;;;;-0.70;38.88;100251.22;4962068;28;97857;-75
2021/04/06 04:24:43;;;;;;;7.75;7.15;;;;;;;-0.67;38.27;100254.00;4944791;28;97226;-75
2021/04/06 04:27:09;;;;;;;7.78;6.97;;;;;;;-0.62;38.11;100259.47;4941840;28;97616;-75
2021/04/06 04:29:36;;;;;;;7.57;7.03;;;;;;;-0.60;38.68;100253.53;4960198;28;98090;-75
2021/04/06 04:32:12;;;;;;;8.23;7.47;;;;;;;-0.57;38.64;100245.88;4942933;28;97981;-75
2021/04/06 04:34:38;;;;;;;7.45;6.93;;;;;;;-0.55;38.46;100249.47;4943318;28;97986;-75
2021/04/06 04:37:05;;;;;;;7.95;7.15;;;;;;;-0.54;37.84;100256.50;4944295;28;98975;-74
2021/04/06 04:39:32;;;;;;;8.10;7.50;;;;;;;-0.51;38.25;100253.16;4959505;28;98920;-74
2021/04/06 04:42:00;;;;;;;8.32;7.63;;;;;;;-0.52;38.79;100252.25;4960912;28;97844;-75
2021/04/06 04:44:27;;;;;;;7.78;7.18;;;;;;;-0.49;38.22;100251.53;4941693;28;98348;-75
2021/04/06 04:46:54;;;;;;;7.53;6.93;;;;;;;-0.44;38.45;100247.47;4941287;28;99326;-75
2021/04/06 04:49:22;;;;;;;8.27;7.68;;;;;;;-0.46;38.50;100250.00;4940790;28;99028;-75
2021/04/06 04:51:48;;;;;;;8.38;7.00;;;;;;;-0.48;38.70;100246.38;4957588;28;97649;-75
2021/04/06 04:54:15;;;;;;;7.60;7.03;;;;;;;-0.50;38.80;100248.00;4961696;28;97847;-74
2021/04/06 04:56:42;;;;;;;8.02;7.32;;;;;;;-0.55;38.29;100254.69;4926195;28;99427;-74
2021/04/06 04:59:09;;;;;;;8.48;7.78;;;;;;;-0.58;38.34;100256.25;4942822;28;101002;-74
2021/04/06 05:01:36;;;;;;;7.97;7.47;;;;;;;-0.60;38.79;100248.31;4960667;28;98149;-75
2021/04/06 05:04:04;;;;;;;9.32;8.40;;;;;;;-0.62;38.26;100244.72;4944247;28;97254;-75
2021/04/06 05:06:49;;;;;;;8.32;7.47;;;;;;;-0.62;38.11;100243.81;4962167;28;96809;-75
2021/04/06 05:09:16;;;;;;;9.27;8.38;;;;;;;-0.59;38.50;100244.88;4975768;28;99603;-75
2021/04/06 05:11:43;;;;;;;8.88;8.05;;;;;;;-0.57;38.30;100242.34;4943853;28;96908;-75
2021/04/06 05:14:10;;;;;;;10.40;9.13;;;;;;;-0.60;38.44;100240.47;4943718;28;97091;-74
2021/04/06 05:16:37;;;;;;;8.02;7.32;;;;;;;-0.61;38.69;100236.06;4959458;28;99491;-74
2021/04/06 05:19:04;;;;;;;8.40;7.60;;;;;;;-0.59;38.93;100241.41;4943031;28;98232;-75
2021/04/06 05:21:31;;;;;;;9.40;8.65;;;;;;;-0.61;38.74;100251.72;4975988;28;97373;-75
2021/04/06 05:23:58;;;;;;;10.40;9.10;;;;;;;-0.64;38.93;100256.78;4942953;28;97899;-75
2021/04/06 05:26:24;;;;;;;8.70;7.90;;;;;;;-0.65;38.72;100254.09;4941782;28;99304;-75
2021/04/06 05:28:51;;;;;;;8.32;7.50;;;;;;;-0.68;38.42;100248.72;4957782;28;98507;-75
2021/04/06 05:31:19;;;;;;;9.18;8.27;;;;;;;-0.72;39.27;100255.44;4935377;28;98160;-75
2021/04/06 05:33:45;;;;;;;9.00;8.13;;;;;;;-0.73;39.04;100263.19;4950077;28;97799;-73
2021/04/06 05:36:12;;;;;;;9.20;8.27;;;;;;;-0.75;38.52;100255.28;4958812;28;98086;-73
2021/04/06 05:38:39;;;;;;;8.55;7.63;;;;;;;-0.76;39.10;100257.81;4941423;28;101163;-73
2021/04/06 05:41:06;;;;;;;8.35;7.53;;;;;;;-0.75;39.04;100241.31;4959238;28;97497;-75
2021/04/06 05:43:33;;;;;;;9.18;7.43;;;;;;;-0.75;39.38;100241.31;4960196;28;97153;-75
2021/04/06 05:46:02;;;;;;;9.05;8.30;;;;;;;-0.78;38.94;100253.38;4926042;28;98954;-74
2021/04/06 05:48:32;;;;;;;8.93;8.02;;;;;;;-0.77;38.76;100243.84;4940609;28;99487;-73
2021/04/06 05:50:59;;;;;;;8.40;6.90;;;;;;;-0.74;39.07;100264.94;4958855;28;97867;-73
2021/04/06 05:53:27;;;;;;;9.02;8.07;;;;;;;-0.70;39.30;100258.16;4957893;28;96857;-74
2021/04/06 05:55:54;;;;;;;9.70;8.00;;;;;;;-0.65;39.12;100281.13;4958733;28;97714;-73
2021/04/06 05:58:21;;;;;;;8.88;7.75;;;;;;;-0.61;38.70;100267.41;4958393;28;98173;-73
2021/04/06 06:00:47;;;;;;;8.35;7.57;;;;;;;-0.56;39.20;100285.97;4958818;28;97566;-73
2021/04/06 06:03:16;;;;;;;9.88;8.88;;;;;;;-0.53;38.61;100273.97;4957901;28;97300;-73
2021/04/06 06:05:44;;;;;;;8.95;8.02;;;;;;;-0.47;38.88;100286.50;4957081;28;99034;-74
2021/04/06 06:08:15;;;;;;;8.20;7.45;;;;;;;-0.39;38.73;100291.34;4941488;28;99342;-74
2021/04/06 06:10:42;;;;;;;11.20;8.45;;;;;;;-0.35;38.75;100292.41;4958409;28;97349;-74
2021/04/06 06:13:20;;;;;;;10.02;8.25;;;;;;;-0.27;39.08;100285.91;4925407;28;97440;-73
2021/04/06 06:16:05;;;;;;;9.05;8.10;;;;;;;-0.24;39.87;100280.84;4959073;28;98607;-74
2021/04/06 06:18:32;;;;;;;13.05;8.07;;;;;;;-0.20;38.23;100281.09;4942496;28;98713;-74
2021/04/06 06:21:02;;;;;;;9.13;7.47;;;;;;;-0.17;38.67;100281.28;4959996;28;96901;-74
2021/04/06 06:23:29;;;;;;;10.90;7.72;;;;;;;-0.10;38.66;100279.91;4927103;28;97677;-74
2021/04/06 06:26:16;;;;;;;11.00;7.30;;;;;;;-0.06;40.32;100280.16;4941016;28;99598;-74
2021/04/06 06:29:08;;;;;;;8.93;6.90;;;;;;;-0.04;39.65;100275.91;4935317;28;100025;-74
2021/04/06 06:31:36;;;;;;;7.43;6.63;;;;;;;-0.02;38.53;100276.91;4970269;28;98219;-74
2021/04/06 06:34:25;;;;;;;10.65;7.10;;;;;;;0.04;39.33;100274.63;4940019;28;100524;-74
2021/04/06 06:37:14;;;;;;;7.80;7.10;;;;;;;0.04;39.26;100279.84;4939659;28;100879;-74
2021/04/06 06:39:48;;;;;;;8.23;7.10;;;;;;;0.00;39.23;100275.25;4928069;28;100802;-74
2021/04/06 06:42:20;;;;;;;9.75;7.70;;;;;;;0.05;38.65;100291.19;4929750;28;97785;-74
2021/04/06 06:44:47;;;;;;;9.13;6.75;;;;;;;0.07;38.71;100294.78;4958799;28;97273;-73
2021/04/06 06:47:20;;;;;;;8.88;7.38;;;;;;;0.13;38.80;100275.13;4924231;28;97783;-74
2021/04/06 06:49:51;;;;;;;11.25;7.63;;;;;;;0.18;38.54;100278.88;4954773;28;97759;-73
2021/04/06 06:52:30;;;;;;;8.18;7.05;;;;;;;0.29;38.75;100278.56;4933605;28;99445;-74
2021/04/06 06:55:00;;;;;;;9.77;6.85;;;;;;;0.28;38.52;100279.41;4935219;28;99086;-74
2021/04/06 06:57:34;;;;;;;7.38;6.68;;;;;;;0.30;38.81;100272.53;4934114;28;100168;-74
2021/04/06 07:00:10;;;;;;;7.53;6.97;;;;;;;0.36;39.94;100280.72;4934486;28;99198;-74
2021/04/06 07:02:39;;;;;;;7.47;6.70;;;;;;;0.42;38.57;100278.41;4951164;28;97214;-73
2021/04/06 07:05:15;;;;;;;6.80;6.20;;;;;;;0.42;39.01;100270.56;4931073;28;98377;-74
2021/04/06 07:07:56;;;;;;;7.45;6.80;;;;;;;0.45;38.68;100263.78;4942884;28;99037;-73
2021/04/06 07:10:24;;;;;;;7.35;6.75;;;;;;;0.50;38.49;100267.56;4952004;28;98275;-73
2021/04/06 07:13:12;;;;;;;10.30;7.40;;;;;;;0.55;39.44;100271.31;4953628;28;97757;-73
2021/04/06 07:15:43;;;;;;;7.80;6.05;;;;;;;0.57;38.37;100274.91;4946432;28;97688;-73
2021/04/06 07:18:14;;;;;;;6.88;6.25;;;;;;;0.61;38.27;100255.03;4947569;28;99344;-74
2021/04/06 07:20:43;;;;;;;6.70;6.10;;;;;;;0.60;38.65;100261.06;4968923;28;98863;-73
2021/04/06 07:23:17;;;;;;;6.63;6.05;;;;;;;0.61;40.14;100271.59;4951315;28;98227;-74
2021/04/06 07:25:49;;;;;;;6.07;5.63;;;;;;;0.68;39.06;100267.63;4951169;28;97698;-73
2021/04/06 07:28:17;;;;;;;8.95;6.63;;;;;;;0.65;39.36;100264.84;4936886;28;100020;-73
2021/04/06 07:30:45;;;;;;;7.55;6.85;;;;;;;0.73;38.44;100264.41;4938914;28;100723;-74
2021/04/06 07:33:14;;;;;;;8.82;6.72;;;;;;;0.75;38.75;100259.25;4956958;28;98280;-74
2021/04/06 07:35:42;;;;;;;6.90;6.30;;;;;;;0.83;38.63;100261.44;4926649;28;97310;-74
2021/04/06 07:38:09;;;;;;;6.63;6.00;;;;;;;0.89;38.27;100260.84;4949246;28;99863;-74
2021/04/06 07:40:37;;;;;;;12.30;6.60;;;;;;;0.97;38.48;100262.16;4941782;28;99062;-73
2021/04/06 07:43:05;;;;;;;6.88;6.38;;;;;;;1.07;38.28;100260.06;4943455;28;96923;-73
2021/04/06 07:45:45;;;;;;;6.60;6.00;;;;;;;1.15;39.86;100263.97;4959528;28;97525;-73
2021/04/06 07:48:33;;;;;;;5.90;5.50;;;;;;;1.19;38.55;100262.41;4929154;28;99903;-73
2021/04/06 07:51:20;;;;;;;5.60;5.20;;;;;;;1.24;39.56;100266.16;4941266;28;98651;-73
2021/04/06 07:54:04;;;;;;;6.07;5.57;;;;;;;1.30;39.31;100255.06;4976335;28;96993;-73
2021/04/06 07:56:50;;;;;;;6.80;6.20;;;;;;;1.37;38.75;100260.69;4940248;28;98195;-73
2021/04/06 07:59:40;;;;;;;7.30;6.70;;;;;;;1.41;39.16;100257.41;4942191;28;97803;-74
2021/04/06 08:02:30;;;;;;;6.20;5.70;;;;;;;1.39;39.27;100261.69;4942621;28;98120;-74
2021/04/06 08:04:59;;;;;;;5.82;5.38;;;;;;;1.43;37.89;100266.25;4925579;28;96913;-74
2021/04/06 08:07:28;;;;;;;5.32;4.93;;;;;;;1.38;38.36;100275.59;4961434;28;97718;-74
2021/04/06 08:09:55;;;;;;;5.97;5.57;;;;;;;1.42;38.06;100274.94;4974756;28;99529;-73
2021/04/06 08:12:25;;;;;;;5.95;5.38;;;;;;;1.48;38.49;100277.84;4943074;28;99314;-74
2021/04/06 08:14:54;;;;;;;6.90;6.30;;;;;;;1.51;38.66;100280.63;4941069;28;97262;-73
2021/04/06 08:17:43;;;;;;;6.40;5.80;;;;;;;1.58;39.42;100277.47;4942732;28;97395;-74
2021/04/06 08:20:22;;;;;;;6.70;5.97;;;;;;;1.66;38.22;100277.84;4947638;28;99776;-74
2021/04/06 08:22:54;;;;;;;7.57;6.97;;;;;;;1.66;37.93;100280.47;4960834;28;97733;-73
2021/04/06 08:25:41;;;;;;;6.45;5.93;;;;;;;1.69;39.05;100293.75;4958792;28;97164;-73
2021/04/06 08:28:29;;;;;;;6.40;5.53;;;;;;;1.66;39.68;100285.72;4941910;28;96787;-73
2021/04/06 08:31:29;;;;;;;7.70;6.15;;;;;;;1.64;39.55;100284.72;4974089;28;98757;-73
2021/04/06 08:34:27;;;;;;;6.43;5.72;;;;;;;1.69;38.19;100276.25;4959685;28;97218;-73
2021/04/06 08:37:28;;;;;;;7.18;6.47;;;;;;;1.74;39.46;100292.25;4941474;28;98712;-73
2021/04/06 08:39:55;;;;;;;9.70;6.80;;;;;;;1.83;38.32;100276.94;4955690;28;96902;-74
2021/04/06 08:42:22;;;;;;;7.00;6.10;;;;;;;1.87;37.96;100277.16;4925644;28;101435;-74
2021/04/06 08:44:56;;;;;;;7.97;6.57;;;;;;;1.88;38.22;100278.97;4957724;28;98480;-74
2021/04/06 08:47:41;;;;;;;8.10;7.30;;;;;;;1.86;38.92;100277.97;4957627;28;98490;-73
2021/04/06 08:50:10;;;;;;;8.27;6.07;;;;;;;1.90;38.46;100282.56;4974298;28;97709;-73
2021/04/06 08:52:39;;;;;;;8.65;7.82;;;;;;;2.00;37.48;100276.91;4941518;28;98128;-73
2021/04/06 08:55:13;;;;;;;7.72;6.53;;;;;;;1.98;38.50;100286.44;4961000;28;98090;-73
2021/04/06 08:57:40;;;;;;;8.18;6.10;;;;;;;2.06;37.55;100263.16;4944328;28;97501;-73
2021/04/06 09:00:14;;;;;;;7.47;5.72;;;;;;;2.02;37.64;100270.00;4923679;28;97573;-73
2021/04/06 09:02:41;;;;;;;9.52;6.05;;;;;;;2.17;37.21;100272.47;4942588;28;97957;-73
2021/04/06 09:05:10;;;;;;;6.72;6.10;;;;;;;2.26;37.27;100266.75;4942163;28;98783;-73
2021/04/06 09:07:38;;;;;;;12.65;6.65;;;;;;;2.33;36.90;100274.09;4958397;28;97640;-73
2021/04/06 09:10:08;;;;;;;7.20;6.60;;;;;;;2.38;36.55;100273.47;4959621;28;96951;-73
2021/04/06 09:12:37;;;;;;;9.55;6.60;;;;;;;2.49;37.47;100279.22;4975655;28;100915;-73
2021/04/06 09:15:06;;;;;;;12.43;7.35;;;;;;;2.54;36.24;100265.47;4941791;28;98670;-74
2021/04/06 09:17:35;;;;;;;14.98;7.95;;;;;;;2.58;36.32;100272.66;4958110;28;97874;-73
2021/04/06 09:20:07;;;;;;;10.50;6.57;;;;;;;2.64;37.34;100278.16;4926054;28;97261;-73
2021/04/06 09:22:52;;;;;;;8.75;6.13;;;;;;;2.72;37.21;100274.16;4941086;28;100969;-73
2021/04/06 09:25:21;;;;;;;8.75;6.63;;;;;;;2.77;36.98;100276.97;4961532;28;97409;-75
2021/04/06 09:28:08;;;;;;;8.55;6.95;;;;;;;2.73;36.76;100273.31;4941551;28;97291;-75
2021/04/06 09:30:43;;;;;;;11.48;6.60;;;;;;;2.76;36.63;100283.06;4960747;28;97357;-74
2021/04/06 09:33:13;;;;;;;5.93;5.40;;;;;;;2.74;36.51;100279.47;4939827;28;100430;-74
2021/04/06 09:35:40;;;;;;;8.50;5.45;;;;;;;2.72;36.30;100271.53;4960133;28;98821;-74
2021/04/06 09:38:07;;;;;;;6.45;5.60;;;;;;;2.75;36.23;100281.25;4957658;28;97137;-75
2021/04/06 09:40:36;;;;;;;8.35;5.40;;;;;;;2.84;36.14;100274.69;4952999;28;97546;-74
2021/04/06 09:43:04;;;;;;;8.77;5.97;;;;;;;2.88;36.28;100267.81;4940665;28;98628;-74
2021/04/06 09:45:31;;;;;;;12.30;7.75;;;;;;;2.90;36.31;100274.06;4953635;28;97719;-74
2021/04/06 09:47:59;;;;;;;5.97;5.18;;;;;;;2.89;36.32;100274.91;4941979;28;97984;-74
2021/04/06 09:50:27;;;;;;;6.60;5.30;;;;;;;2.89;35.85;100270.50;4951258;28;99066;-74
2021/04/06 09:52:54;;;;;;;6.43;5.82;;;;;;;2.93;36.74;100263.69;4954549;28;97289;-74
2021/04/06 09:55:22;;;;;;;6.78;5.30;;;;;;;3.01;35.95;100259.66;4940800;28;99262;-74
2021/04/06 09:57:53;;;;;;;5.47;4.95;;;;;;;3.08;35.67;100248.56;4973496;28;97506;-73
2021/04/06 10:00:26;;;;;;;10.13;5.10;;;;;;;3.05;35.47;100277.34;4939743;28;97496;-73
2021/04/06 10:03:04;;;;;;;9.13;4.90;;;;;;;2.98;35.30;100263.03;4973739;28;99560;-74
2021/04/06 10:05:33;;;;;;;6.97;5.93;;;;;;;3.02;35.58;100262.34;4924600;28;100467;-74
2021/04/06 10:08:00;;;;;;;6.00;4.88;;;;;;;2.99;36.06;100256.06;4973180;28;97919;-74
2021/04/06 10:10:47;;;;;;;5.72;4.82;;;;;;;3.12;35.60;100238.25;4940122;28;97850;-74
2021/04/06 10:13:14;;;;;;;6.40;5.78;;;;;;;3.26;35.10;100241.44;4958871;28;97463;-74
2021/04/06 10:15:41;;;;;;;7.25;5.32;;;;;;;3.35;35.13;100231.28;4974374;28;99277;-75
2021/04/06 10:18:10;;;;;;;7.82;4.57;;;;;;;3.41;34.66;100225.38;4959973;28;96995;-75
2021/04/06 10:20:40;;;;;;;7.75;4.88;;;;;;;3.41;34.80;100220.13;4975648;28;96994;-75
2021/04/06 10:23:07;;;;;;;6.20;5.07;;;;;;;3.41;35.25;100234.19;4935315;28;98634;-75
2021/04/06 10:25:36;;;;;;;5.18;4.65;;;;;;;3.45;35.02;100222.97;4939455;28;99564;-74
2021/04/06 10:28:07;;;;;;;7.68;4.40;;;;;;;3.48;34.15;100216.94;4954886;28;97725;-74
2021/04/06 10:30:37;;;;;;;7.82;5.13;;;;;;;3.52;34.02;100213.56;4939654;28;98860;-75
2021/04/06 10:33:07;;;;;;;5.25;4.78;;;;;;;3.58;34.48;100208.56;4936148;28;99739;-75
2021/04/06 10:35:38;;;;;;;12.38;4.78;;;;;;;3.68;34.77;100206.38;4955205;28;98733;-75
2021/04/06 10:38:06;;;;;;;6.55;5.00;;;;;;;3.68;34.43;100219.53;4941501;28;97107;-75
2021/04/06 10:40:36;;;;;;;10.13;5.85;;;;;;;3.70;33.28;100224.88;4936861;28;98180;-75
2021/04/06 10:43:06;;;;;;;5.93;4.97;;;;;;;3.72;33.56;100202.16;4937677;28;101029;-75
2021/04/06 10:45:36;;;;;;;8.77;6.07;;;;;;;3.75;33.36;100197.03;4953472;28;97755;-75
2021/04/06 10:48:07;;;;;;;8.07;5.25;;;;;;;3.80;33.69;100212.16;4939590;28;98694;-75
2021/04/06 10:50:36;;;;;;;12.10;4.03;;;;;;;3.81;33.87;100192.88;4943841;28;98485;-75
2021/04/06 10:53:19;;;;;;;4.75;4.30;;;;;;;3.90;33.78;100200.22;4944013;28;100759;-75
2021/04/06 10:55:50;;;;;;;7.63;4.68;;;;;;;3.89;33.61;100196.72;4943788;28;101146;-73
2021/04/06 10:58:21;;;;;;;4.15;3.83;;;;;;;3.90;33.70;100198.50;4960240;28;97075;-73
2021/04/06 11:00:56;;;;;;;5.57;4.60;;;;;;;3.83;34.02;100200.81;4941232;28;97503;-74
2021/04/06 11:03:23;;;;;;;4.80;4.07;;;;;;;3.77;34.02;100196.22;4937209;28;100815;-73
2021/04/06 11:05:50;;;;;;;6.43;4.30;;;;;;;3.72;34.09;100186.34;4960861;28;98557;-73
2021/04/06 11:08:22;;;;;;;7.05;5.30;;;;;;;3.72;33.50;100181.09;4961568;28;97766;-73
2021/04/06 11:10:51;;;;;;;6.70;5.38;;;;;;;3.68;33.33;100179.19;4957246;28;98394;-73
2021/04/06 11:13:18;;;;;;;4.90;4.40;;;;;;;3.71;33.43;100193.38;4955864;28;98096;-73
2021/04/06 11:15:45;;;;;;;6.25;4.80;;;;;;;3.77;33.69;100174.31;4960899;28;98159;-73
2021/04/06 11:18:13;;;;;;;7.03;4.57;;;;;;;3.87;33.78;100173.81;4960145;28;97818;-73
2021/04/06 11:20:41;;;;;;;6.65;4.20;;;;;;;3.94;33.31;100179.34;4955507;28;96984;-72
2021/04/06 11:23:08;;;;;;;5.00;4.60;;;;;;;4.03;33.64;100177.06;4943548;28;99272;-73
2021/04/06 11:25:35;;;;;;;4.47;4.18;;;;;;;4.10;33.77;100170.28;4942509;28;99753;-73
2021/04/06 11:28:02;;;;;;;8.45;4.97;;;;;;;4.13;33.22;100158.13;4945924;28;97788;-73
2021/04/06 11:30:32;;;;;;;8.27;5.13;;;;;;;4.19;33.38;100147.84;4961194;28;96943;-73
2021/04/06 11:33:00;;;;;;;5.30;4.50;;;;;;;4.23;32.98;100162.00;4961749;28;97879;-73
2021/04/06 11:35:28;;;;;;;11.32;4.80;;;;;;;4.24;32.37;100158.53;4966079;28;98119;-73
2021/04/06 11:37:56;;;;;;;6.97;5.05;;;;;;;4.32;32.38;100159.69;4965351;28;97017;-73
2021/04/06 11:40:23;;;;;;;7.35;4.78;;;;;;;4.32;32.16;100138.63;4945965;28;97397;-75
2021/04/06 11:42:51;;;;;;;6.22;4.45;;;;;;;4.37;31.96;100150.22;4966091;28;99447;-74
2021/04/06 11:45:21;;;;;;;7.60;4.60;;;;;;;4.42;32.33;100132.88;4947469;28;97682;-74